Time;durP1;ratioP1;P1;durP2;ratioP2;P2;SDS_P1;SDS_P2;PMS_P1;PMS_P2;Temp;Humidity;BMP_temperature;BMP_pressure;BME280_temperature;BME280_humidity;BME280_pressure;Samples;Min_cycle;Max_cycle;Signal;HPM_P1;HPM_P2
2022/12/17 13:07:03;;;;;;;46.77;23.07;;;-2.50;98.20;;;1.54;51.60;98444.47;5038159;28;20104;-60
2022/12/17 13:09:51;;;;;;;41.57;23.87;;;-2.50;98.80;;;1.52;51.55;98448.09;5042086;28;20224;-60
2022/12/17 13:12:30;;;;;;;45.80;23.47;;;-2.40;98.50;;;1.57;51.24;98441.66;5038835;28;20059;-59
2022/12/17 13:14:58;;;;;;;45.97;22.13;;;-2.40;97.70;;;1.60;51.56;98439.81;5042520;28;20045;-60
2022/12/17 13:17:37;;;;;;;48.87;24.30;;;-2.40;97.70;;;1.61;50.93;98433.59;5042868;28;20087;-60
2022/12/17 13:20:25;;;;;;;47.53;24.23;;;-2.40;98.20;;;1.51;51.02;98436.78;5044297;28;20051;-60
2022/12/17 13:23:17;;;;;;;47.33;26.47;;;-2.50;96.90;;;1.47;51.04;98429.97;5037904;28;20042;-59
2022/12/17 13:25:45;;;;;;;43.37;23.53;;;-2.50;97.30;;;1.48;51.05;98431.69;5035702;28;20043;-60
2022/12/17 13:28:28;;;;;;;48.97;26.43;;;-2.60;97.10;;;1.42;51.31;98433.81;5043866;28;20370;-60
2022/12/17 13:31:12;;;;;;;55.23;30.30;;;-2.60;97.10;;;1.35;51.25;98435.91;5041888;28;20055;-60
2022/12/17 13:33:57;;;;;;;44.03;24.13;;;-2.70;96.00;;;1.32;51.13;98426.44;5036061;28;20050;-60
2022/12/17 13:36:47;;;;;;;44.67;24.67;;;-2.70;96.70;;;1.26;50.97;98428.53;5042880;28;20049;-60
2022/12/17 13:39:39;;;;;;;39.33;22.43;;;-2.80;96.60;;;1.19;51.46;98428.03;5042727;28;20045;-60
2022/12/17 13:42:33;;;;;;;44.83;23.07;;;-2.80;96.30;;;1.10;50.81;98423.28;5043424;28;20045;-61
2022/12/17 13:45:02;;;;;;;34.83;20.88;;;-2.80;96.60;;;1.15;51.27;98427.34;5037232;28;20049;-60
2022/12/17 13:47:34;;;;;;;42.03;22.20;;;-2.80;97.80;;;1.15;51.15;98429.97;5043456;28;20045;-60
2022/12/17 13:50:21;;;;;;;40.50;21.10;;;-2.80;96.60;;;1.12;51.07;98431.91;5042261;28;20247;-60
2022/12/17 13:53:14;;;;;;;40.63;21.57;;;-2.80;96.30;;;1.11;50.53;98431.06;5037653;28;20252;-60
2022/12/17 13:55:52;;;;;;;47.07;24.70;;;-2.80;96.10;;;1.09;50.99;98432.94;5034733;28;20045;-60
2022/12/17 13:58:32;;;;;;;41.10;22.30;;;-2.90;95.60;;;1.07;51.26;98434.78;5043400;28;20045;-60
2022/12/17 14:01:10;;;;;;;54.23;28.37;;;-2.90;95.60;;;1.05;50.47;98448.91;5041665;28;20042;-60
2022/12/17 14:03:42;;;;;;;48.77;23.93;;;-3.00;95.60;;;1.07;51.38;98447.06;5042344;28;20045;-60
2022/12/17 14:06:36;;;;;;;52.97;24.70;;;-2.90;96.40;;;1.04;50.61;98460.31;5041881;28;20095;-60
2022/12/17 14:09:05;;;;;;;55.50;25.23;;;-3.00;95.00;;;1.00;51.04;98453.56;5042370;28;20051;-60
2022/12/17 14:14:46;;;;;;;50.17;23.67;;;-3.10;95.20;;;0.89;51.42;98454.09;5040890;28;20050;-59
2022/12/17 14:17:26;;;;;;;55.42;27.20;;;-3.10;96.40;;;0.90;50.97;98461.06;5040260;28;20053;-61
2022/12/17 14:20:11;;;;;;;62.93;28.67;;;-3.10;96.10;;;0.88;50.97;98470.78;5040741;28;20047;-60
2022/12/17 14:22:45;;;;;;;47.40;24.73;;;-3.20;96.20;;;0.87;50.85;98463.84;5041324;28;20060;-61
2022/12/17 14:25:38;;;;;;;45.13;23.93;;;-3.20;95.50;;;0.78;51.24;98476.50;5040022;28;20050;-60
2022/12/17 14:28:34;;;;;;;44.17;23.80;;;-3.30;96.30;;;0.75;50.32;98478.44;5020788;28;20055;-60
2022/12/17 14:31:19;;;;;;;43.80;23.07;;;-3.30;96.40;;;0.71;50.43;98477.75;5034614;28;20053;-60
2022/12/17 14:34:10;;;;;;;47.63;22.67;;;-3.40;96.80;;;0.72;50.61;98470.75;5041231;28;20044;-60
2022/12/17 14:36:41;;;;;;;43.90;21.53;;;-3.30;96.60;;;0.75;51.30;98470.56;5040599;28;20045;-60
2022/12/17 14:39:31;;;;;;;41.03;20.80;;;-3.30;97.30;;;0.64;51.08;98472.88;5021303;28;20054;-60
2022/12/17 14:42:35;;;;;;;45.50;23.13;;;-3.30;96.10;;;0.55;50.64;98475.06;5018685;28;20052;-61
2022/12/17 14:45:23;;;;;;;45.80;22.90;;;-3.40;96.40;;;0.53;50.87;98473.44;5020030;28;20049;-60
2022/12/17 14:47:55;;;;;;;45.53;22.57;;;-3.50;97.00;;;0.55;51.09;98472.44;5037499;28;20048;-59
2022/12/17 14:50:35;;;;;;;38.37;21.90;;;-3.50;96.90;;;0.46;50.84;98472.91;5040486;28;20057;-60
2022/12/17 14:53:26;;;;;;;52.57;25.03;;;-3.50;96.70;;;0.39;50.73;98476.78;5039481;28;20244;-60
2022/12/17 14:55:58;;;;;;;45.57;22.43;;;-3.60;96.30;;;0.34;50.48;98471.75;5041217;28;20048;-60
2022/12/17 14:58:26;;;;;;;47.73;23.17;;;-3.80;96.80;;;0.30;51.24;98464.13;5040888;28;20059;-60
2022/12/17 15:01:13;;;;;;;38.33;21.13;;;-3.80;98.10;;;0.22;51.18;98468.91;5031518;28;20059;-60
2022/12/17 15:03:45;;;;;;;43.97;23.27;;;-3.80;97.30;;;0.21;50.96;98470.66;5031093;28;20041;-60
2022/12/17 15:06:17;;;;;;;49.00;21.93;;;-3.80;96.90;;;0.14;50.87;98469.28;5039781;28;20041;-60
2022/12/17 15:08:49;;;;;;;46.10;22.10;;;-3.90;97.70;;;0.10;50.78;98473.00;5040152;28;20037;-60
2022/12/17 15:11:20;;;;;;;48.47;23.13;;;-4.00;97.50;;;0.05;50.43;98477.59;5039790;28;20045;-60
2022/12/17 15:13:48;;;;;;;50.73;25.90;;;-4.00;97.80;;;-0.01;50.64;98474.34;5040081;28;20041;-59
2022/12/17 15:16:23;;;;;;;57.70;26.20;;;-4.10;98.70;;;-0.05;51.15;98472.81;5039867;28;20342;-60
2022/12/17 15:18:51;;;;;;;45.77;25.20;;;-4.10;97.80;;;-0.08;50.59;98486.06;5040033;28;20052;-61
2022/12/17 15:21:19;;;;;;;65.80;28.27;;;-4.10;99.70;;;-0.14;51.38;98481.09;5039062;28;20363;-60
2022/12/17 15:23:47;;;;;;;46.73;26.27;;;-4.20;98.10;;;-0.20;50.73;98477.00;5040018;28;20235;-59
2022/12/17 15:26:16;;;;;;;53.50;25.63;;;-4.30;97.50;;;-0.24;50.53;98480.69;5039998;28;20371;-58
2022/12/17 15:28:44;;;;;;;50.67;25.60;;;-4.30;98.70;;;-0.28;50.63;98484.38;5040841;28;20041;-59
2022/12/17 15:31:14;;;;;;;52.70;25.77;;;-4.30;99.00;;;-0.31;50.65;98478.44;5040730;28;20055;-61
2022/12/17 15:33:46;;;;;;;51.77;28.60;;;-4.40;98.30;;;-0.37;51.41;98490.03;5039548;28;20048;-59
2022/12/17 15:36:14;;;;;;;53.83;28.50;;;-4.40;98.30;;;-0.40;50.65;98488.44;5041400;28;20045;-59
2022/12/17 15:38:42;;;;;;;58.57;28.17;;;-4.40;98.70;;;-0.44;51.33;98486.88;5040807;28;20043;-60
2022/12/17 15:43:56;;;;;;;51.30;24.70;;;-4.50;99.00;;;-0.50;51.58;98499.41;5040218;28;20041;-60
2022/12/17 15:46:24;;;;;;;50.40;23.53;;;-4.50;99.90;;;-0.54;50.95;98493.47;5040244;28;20046;-59
2022/12/17 15:48:52;;;;;;;48.50;23.73;;;-4.50;99.40;;;-0.52;51.58;98499.47;5040624;28;20038;-60
2022/12/17 15:51:19;;;;;;;45.93;22.90;;;-4.50;99.80;;;-0.53;51.72;98494.31;5040303;28;20053;-60
2022/12/17 15:53:49;;;;;;;48.10;21.07;;;-4.50;99.50;;;-0.53;51.37;98495.16;5034726;28;20042;-59
2022/12/17 15:56:24;;;;;;;45.07;25.03;;;-4.50;99.90;;;-0.55;51.42;98490.91;5044699;28;20033;-60
2022/12/17 15:58:55;;;;;;;56.20;27.40;;;-4.50;99.80;;;-0.58;50.96;98502.38;5037518;28;20051;-60
2022/12/17 16:01:23;;;;;;;52.30;27.57;;;-4.60;99.10;;;-0.61;50.88;98502.50;5042938;28;20265;-58
2022/12/17 16:03:52;;;;;;;60.43;31.13;;;-4.60;99.40;;;-0.62;50.99;98504.28;5044570;28;20041;-60
2022/12/17 16:06:19;;;;;;;62.20;29.43;;;-4.60;99.40;;;-0.64;51.06;98505.25;5043581;28;20045;-59
2022/12/17 16:08:47;;;;;;;53.10;28.73;;;-4.60;99.20;;;-0.68;51.36;98517.66;5044082;28;20041;-59
2022/12/17 16:11:15;;;;;;;60.23;30.70;;;-4.60;98.50;;;-0.74;51.00;98517.91;5043400;28;20057;-56
2022/12/17 16:13:43;;;;;;;52.03;26.90;;;-4.80;97.60;;;-0.80;51.07;98515.56;5043817;28;20341;-58
2022/12/17 16:16:11;;;;;;;50.00;21.57;;;-4.80;97.40;;;-0.90;51.18;98520.34;5047730;28;20060;-59
2022/12/17 16:18:39;;;;;;;47.53;23.27;;;-4.90;97.30;;;-1.02;50.58;98521.75;5043622;28;20125;-57
2022/12/17 16:21:08;;;;;;;57.80;26.97;;;-5.10;96.20;;;-1.11;50.98;98516.91;5044507;28;20054;-59
2022/12/17 16:23:36;;;;;;;53.77;24.90;;;-5.20;97.30;;;-1.19;50.63;98519.88;5045027;28;20056;-59
2022/12/17 16:26:07;;;;;;;48.87;27.33;;;-5.30;97.00;;;-1.23;50.94;98522.69;5044105;28;20056;-59
2022/12/17 16:28:35;;;;;;;53.20;28.43;;;-5.40;97.80;;;-1.25;50.67;98521.91;5043838;28;20051;-57
2022/12/17 16:31:07;;;;;;;53.03;28.07;;;-5.40;97.30;;;-1.28;50.63;98516.78;5044597;28;20112;-58
2022/12/17 16:33:39;;;;;;;52.37;28.53;;;-5.30;98.40;;;-1.28;50.52;98511.56;5045022;28;20053;-59
2022/12/17 16:36:12;;;;;;;49.40;25.93;;;-5.30;98.10;;;-1.31;50.85;98509.13;5043991;28;20059;-58
2022/12/17 16:38:49;;;;;;;52.00;26.63;;;-5.30;97.40;;;-1.36;50.55;98511.06;5043893;28;20232;-59
2022/12/17 16:41:20;;;;;;;58.97;26.40;;;-5.30;97.70;;;-1.37;50.85;98507.59;5043534;28;20344;-59
2022/12/17 16:43:48;;;;;;;59.93;28.77;;;-5.30;97.00;;;-1.39;50.78;98509.44;5044777;28;20221;-58
2022/12/17 16:46:38;;;;;;;53.00;25.83;;;-5.40;96.90;;;-1.49;50.57;98503.75;5027114;28;20262;-59
2022/12/17 16:49:19;;;;;;;47.40;23.70;;;-5.40;97.10;;;-1.49;50.74;98508.09;5021759;28;20057;-59
2022/12/17 16:51:50;;;;;;;45.13;25.57;;;-5.40;96.80;;;-1.47;50.90;98516.75;5044316;28;20052;-59
2022/12/17 16:54:22;;;;;;;54.73;25.17;;;-5.40;97.20;;;-1.48;51.18;98515.88;5043579;28;20072;-59
2022/12/17 16:56:50;;;;;;;44.90;23.97;;;-5.40;97.60;;;-1.47;51.22;98515.00;5019843;28;20045;-57
2022/12/17 16:59:18;;;;;;;54.27;26.10;;;-5.40;97.20;;;-1.51;50.93;98513.44;5044585;28;20255;-58
2022/12/17 17:01:49;;;;;;;54.83;27.27;;;-5.40;96.30;;;-1.53;50.95;98510.03;5042524;28;20047;-58
2022/12/17 17:04:21;;;;;;;57.20;28.07;;;-5.40;96.90;;;-1.54;50.59;98524.00;5043960;28;20050;-58
2022/12/17 17:06:55;;;;;;;58.17;28.10;;;-5.40;96.60;;;-1.55;50.71;98511.84;5040554;28;20045;-58
2022/12/17 17:09:24;;;;;;;61.10;30.20;;;-5.50;96.60;;;-1.55;50.76;98524.03;5042629;28;20318;-58
2022/12/17 17:11:57;;;;;;;56.57;27.97;;;-5.40;97.10;;;-1.56;51.12;98520.59;5035242;28;20045;-58
2022/12/17 17:14:26;;;;;;;55.73;27.73;;;-5.40;97.20;;;-1.57;50.92;98526.75;5043899;28;20239;-58
2022/12/17 17:16:53;;;;;;;53.40;25.53;;;-5.40;97.00;;;-1.55;50.89;98531.88;5043665;28;20041;-58
2022/12/17 17:19:21;;;;;;;52.87;27.67;;;-5.40;97.30;;;-1.58;50.96;98535.47;5042942;28;20045;-58
2022/12/17 17:21:52;;;;;;;45.23;25.43;;;-5.40;96.70;;;-1.58;50.58;98540.69;5041789;28;20049;-59
2022/12/17 17:24:24;;;;;;;48.50;24.97;;;-5.50;96.70;;;-1.60;51.20;98542.53;5042504;28;20049;-59
2022/12/17 17:26:54;;;;;;;45.17;22.83;;;-5.50;96.50;;;-1.64;50.63;98541.81;5035140;28;20047;-59
2022/12/17 17:29:22;;;;;;;51.57;25.97;;;-5.60;95.70;;;-1.68;50.72;98539.38;5042068;28;20049;-58
2022/12/17 17:31:49;;;;;;;54.83;26.10;;;-5.60;95.80;;;-1.73;50.42;98543.94;5042434;28;20086;-59
2022/12/17 17:34:38;;;;;;;47.40;23.60;;;-5.70;95.30;;;-1.88;50.76;98541.06;5042148;28;20069;-57
2022/12/17 17:37:06;;;;;;;41.03;22.03;;;-5.90;95.10;;;-1.94;50.85;98548.25;5025652;28;20283;-58
2022/12/17 17:39:35;;;;;;;45.57;23.53;;;-6.00;96.80;;;-1.96;50.39;98548.31;5040611;28;20240;-58
2022/12/17 17:42:03;;;;;;;51.40;24.03;;;-6.00;97.40;;;-1.94;50.47;98553.47;5041051;28;20050;-57
2022/12/17 17:44:31;;;;;;;47.00;24.33;;;-6.00;98.10;;;-1.98;50.63;98555.34;5041341;28;20042;-58
2022/12/17 17:46:59;;;;;;;52.23;24.07;;;-6.00;97.10;;;-2.02;50.80;98549.41;5041563;28;20221;-58
2022/12/17 17:49:27;;;;;;;54.27;26.73;;;-6.00;97.50;;;-2.07;50.74;98551.38;5042556;28;20052;-58
2022/12/17 17:51:55;;;;;;;55.23;25.50;;;-6.10;96.70;;;-2.12;50.93;98565.50;5042493;28;20209;-58
2022/12/17 17:54:39;;;;;;;52.17;26.33;;;-6.10;98.10;;;-2.16;50.86;98563.94;5041783;28;20049;-59
2022/12/17 17:57:08;;;;;;;57.13;25.80;;;-6.10;98.30;;;-2.14;50.89;98555.13;5043179;28;20057;-59
2022/12/17 17:59:38;;;;;;;54.20;26.30;;;-6.10;98.40;;;-2.15;50.89;98560.38;5042328;28;20259;-59
2022/12/17 18:02:08;;;;;;;59.93;27.40;;;-6.10;99.20;;;-2.12;51.26;98562.88;5041029;28;20051;-58
2022/12/17 18:04:36;;;;;;;55.63;27.27;;;-6.00;98.90;;;-2.10;51.19;98561.91;5041497;28;20044;-59
2022/12/17 18:07:04;;;;;;;60.43;28.90;;;-6.00;98.10;;;-2.09;50.87;98552.34;5041352;28;20252;-57
2022/12/17 18:09:52;;;;;;;56.70;26.80;;;-6.00;97.80;;;-2.07;51.01;98558.34;5041247;28;20045;-58
2022/12/17 18:15:07;;;;;;;60.23;28.63;;;-5.90;97.30;;;-2.07;51.24;98551.38;5035753;28;20046;-59
2022/12/17 18:17:50;;;;;;;57.30;26.57;;;-5.90;98.10;;;-2.06;51.18;98554.81;5042159;28;20369;-56
2022/12/17 18:20:18;;;;;;;69.30;33.87;;;-5.90;98.60;;;-2.05;51.02;98559.97;5041109;28;20051;-59
2022/12/17 18:22:45;;;;;;;83.40;37.63;;;-5.80;99.10;;;-2.04;51.36;98572.09;5041039;28;20041;-58
2022/12/17 18:25:16;;;;;;;79.73;36.63;;;-5.80;99.10;;;-2.03;51.35;98557.31;5040744;28;20045;-57
2022/12/17 18:27:44;;;;;;;86.53;40.93;;;-5.80;98.20;;;-2.04;50.99;98553.00;5040956;28;20041;-57
2022/12/17 18:30:15;;;;;;;66.17;32.97;;;-5.90;98.60;;;-2.03;51.30;98552.94;5040402;28;20045;-58
2022/12/17 18:32:43;;;;;;;69.77;34.23;;;-5.80;98.90;;;-2.02;51.38;98559.00;5041336;28;20072;-57
2022/12/17 18:35:11;;;;;;;59.30;30.50;;;-5.80;98.80;;;-2.03;51.43;98557.31;5041893;28;20133;-57
2022/12/17 18:37:38;;;;;;;53.37;28.93;;;-5.70;98.50;;;-2.01;51.05;98565.94;5041469;28;20067;-56
2022/12/17 18:40:07;;;;;;;50.20;26.33;;;-5.70;98.00;;;-1.99;51.55;98574.56;5041962;28;20426;-58
2022/12/17 18:45:22;;;;;;;50.30;24.83;;;-5.80;97.00;;;-2.04;51.30;98587.75;5040922;28;20047;-57
2022/12/17 18:47:50;;;;;;;55.30;26.17;;;-5.90;97.00;;;-2.05;51.16;98591.28;5041648;28;20344;-59
2022/12/17 18:50:18;;;;;;;70.07;30.87;;;-5.90;97.40;;;-2.07;50.98;98585.28;5041194;28;20053;-58
2022/12/17 18:52:45;;;;;;;66.67;31.07;;;-5.90;97.30;;;-2.09;51.36;98581.06;5040193;28;20243;-58
2022/12/17 18:55:13;;;;;;;67.17;31.57;;;-5.90;97.10;;;-2.18;50.79;98584.84;5040356;28;20056;-57
2022/12/17 18:57:41;;;;;;;56.77;27.37;;;-6.10;95.60;;;-2.18;50.78;98587.47;5041252;28;20049;-58
2022/12/17 19:00:10;;;;;;;55.70;26.43;;;-6.20;97.30;;;-2.23;50.68;98594.59;5048345;28;20055;-59
2022/12/17 19:02:38;;;;;;;54.87;27.30;;;-6.20;96.30;;;-2.27;50.57;98601.72;5040405;28;20056;-59
2022/12/17 19:05:06;;;;;;;56.30;30.37;;;-6.20;95.80;;;-2.32;50.78;98600.19;5040840;28;20071;-57
2022/12/17 19:07:34;;;;;;;56.23;29.07;;;-6.30;96.90;;;-2.35;50.93;98593.31;5041109;28;20051;-57
2022/12/17 19:10:02;;;;;;;60.53;27.77;;;-6.20;97.10;;;-2.37;51.11;98588.13;5041086;28;20374;-59
2022/12/17 19:12:31;;;;;;;60.77;28.30;;;-6.30;96.40;;;-2.38;50.65;98591.66;5039826;28;20350;-59
2022/12/17 19:14:59;;;;;;;59.33;28.47;;;-6.30;96.80;;;-2.42;51.03;98591.84;5032794;28;20090;-58
2022/12/17 19:17:26;;;;;;;56.07;25.37;;;-6.30;96.60;;;-2.43;50.73;98597.97;5041148;28;20055;-59
2022/12/17 19:19:54;;;;;;;50.23;24.53;;;-6.40;96.20;;;-2.49;50.78;98606.88;5023523;28;20046;-59
2022/12/17 19:22:22;;;;;;;60.63;29.40;;;-6.40;95.80;;;-2.50;50.93;98613.00;5040260;28;20259;-58
2022/12/17 19:24:50;;;;;;;56.53;28.33;;;-6.50;96.90;;;-2.53;50.80;98618.31;5040812;28;20045;-58
2022/12/17 19:27:17;;;;;;;53.70;24.77;;;-6.50;97.10;;;-2.53;50.60;98622.69;5040586;28;20067;-59
2022/12/17 19:29:45;;;;;;;56.47;26.27;;;-6.50;96.90;;;-2.55;51.01;98624.50;5041186;28;20057;-58
2022/12/17 19:32:18;;;;;;;59.93;26.33;;;-6.50;97.30;;;-2.69;50.68;98632.81;5040835;28;20060;-56
2022/12/17 19:34:46;;;;;;;53.20;26.57;;;-6.60;94.80;;;-2.74;50.77;98626.91;5040772;28;20247;-59
2022/12/17 19:37:13;;;;;;;55.40;27.80;;;-6.70;96.60;;;-2.71;50.64;98629.44;5040320;28;20051;-59
2022/12/17 19:39:41;;;;;;;58.80;24.80;;;-6.70;98.40;;;-2.73;51.03;98624.25;5039853;28;20255;-59
2022/12/17 19:42:23;;;;;;;59.87;27.67;;;-6.70;98.00;;;-2.71;50.97;98630.25;5040098;28;20050;-59
2022/12/17 19:44:54;;;;;;;50.17;24.53;;;-6.60;98.70;;;-2.75;51.27;98620.84;5041064;28;20045;-59
2022/12/17 19:47:22;;;;;;;73.40;31.17;;;-6.60;99.90;;;-2.72;51.66;98628.56;5040452;28;20049;-59
2022/12/17 19:49:50;;;;;;;65.50;31.80;;;-6.50;99.90;;;-2.70;51.57;98629.34;5039933;28;20068;-58
2022/12/17 19:52:18;;;;;;;62.77;30.43;;;-6.50;99.90;;;-2.65;51.76;98635.25;5040512;28;20041;-59
2022/12/17 19:54:48;;;;;;;60.90;28.83;;;-6.50;99.90;;;-2.61;51.47;98626.41;5039608;28;20045;-58
2022/12/17 19:57:15;;;;;;;53.20;25.70;;;-6.50;99.90;;;-2.59;51.57;98621.16;5040108;28;20059;-59
2022/12/17 19:59:43;;;;;;;59.77;27.10;;;-6.40;99.90;;;-2.55;51.49;98620.13;5040427;28;20045;-57
2022/12/17 20:02:11;;;;;;;50.07;24.00;;;-6.30;99.80;;;-2.51;51.39;98620.88;5039266;28;20225;-59
2022/12/17 20:04:39;;;;;;;60.17;25.70;;;-6.30;99.20;;;-2.50;51.37;98623.44;5040733;28;20041;-59
2022/12/17 20:07:07;;;;;;;53.87;23.87;;;-6.30;99.10;;;-2.50;51.59;98628.66;5040478;28;20055;-59
2022/12/17 20:09:35;;;;;;;44.20;22.17;;;-6.30;99.90;;;-2.48;51.59;98626.84;5039650;28;20049;-59
2022/12/17 20:12:03;;;;;;;47.80;23.03;;;-6.20;99.90;;;-2.43;52.10;98622.28;5032992;28;20071;-59
2022/12/17 20:14:33;;;;;;;53.30;23.47;;;-6.10;99.90;;;-2.33;52.53;98624.56;5039300;28;20052;-59
2022/12/17 20:17:01;;;;;;;51.27;24.13;;;-5.90;99.90;;;-2.26;52.45;98618.22;5038965;28;20045;-59
2022/12/17 20:19:32;;;;;;;47.27;22.30;;;-5.80;99.90;;;-2.19;52.53;98622.28;5039394;28;20048;-59
2022/12/17 20:22:03;;;;;;;50.37;21.37;;;-5.60;99.90;;;-2.09;52.47;98636.69;5039014;28;20044;-58
2022/12/17 20:24:31;;;;;;;48.63;23.13;;;-5.60;99.90;;;-2.02;52.48;98630.31;5041084;28;20053;-60
2022/12/17 20:27:00;;;;;;;58.37;24.20;;;-5.50;99.90;;;-1.97;52.61;98622.31;5022507;28;20430;-59
2022/12/17 20:29:28;;;;;;;50.47;23.60;;;-5.40;99.90;;;-1.89;52.65;98620.25;5039457;28;20051;-59
2022/12/17 20:31:56;;;;;;;47.10;22.77;;;-5.40;99.80;;;-1.85;52.14;98615.78;5038915;28;20064;-59
2022/12/17 20:34:24;;;;;;;45.27;22.23;;;-5.40;99.90;;;-1.80;52.36;98608.63;5039110;28;20049;-59
2022/12/17 20:36:53;;;;;;;48.20;22.60;;;-5.40;99.90;;;-1.77;52.18;98610.25;5040439;28;20052;-60
2022/12/17 20:39:22;;;;;;;47.93;23.13;;;-5.30;99.90;;;-1.72;52.20;98603.09;5041182;28;20075;-59
2022/12/17 20:41:55;;;;;;;47.72;22.02;;;-5.30;99.50;;;-1.73;52.07;98594.38;5042372;28;20075;-59
2022/12/17 20:44:23;;;;;;;41.17;20.10;;;-5.30;99.40;;;-1.70;52.03;98596.88;5042733;28;20359;-59
2022/12/17 20:46:51;;;;;;;53.07;24.10;;;-5.20;99.50;;;-1.69;52.55;98610.78;5043271;28;20071;-61
2022/12/17 20:49:20;;;;;;;40.07;20.17;;;-5.10;99.40;;;-1.65;52.94;98612.34;5026424;28;20045;-59
2022/12/17 20:51:48;;;;;;;40.10;18.97;;;-5.00;98.10;;;-1.60;52.41;98618.25;5041886;28;20075;-60
2022/12/17 20:54:16;;;;;;;49.17;24.57;;;-5.10;97.60;;;-1.60;52.26;98619.09;5043852;28;20248;-59
2022/12/17 20:56:44;;;;;;;49.47;23.20;;;-5.10;97.00;;;-1.61;52.15;98622.63;5025670;28;20049;-58
2022/12/17 20:59:18;;;;;;;53.67;24.07;;;-5.10;96.90;;;-1.63;51.92;98619.25;5043659;28;20045;-59
2022/12/17 21:01:47;;;;;;;50.83;24.00;;;-5.20;96.00;;;-1.67;52.26;98607.19;5043743;28;20049;-59
2022/12/17 21:04:23;;;;;;;50.17;22.93;;;-5.20;95.90;;;-1.69;51.96;98610.78;5042636;28;20041;-59
2022/12/17 21:06:50;;;;;;;53.13;22.87;;;-5.30;96.10;;;-1.69;52.23;98610.78;5043087;28;20041;-59
2022/12/17 21:09:21;;;;;;;40.20;19.40;;;-5.20;97.00;;;-1.69;51.90;98614.25;5043658;28;20047;-59
2022/12/17 21:11:48;;;;;;;39.23;19.30;;;-5.30;97.00;;;-1.66;52.10;98621.97;5025820;28;20061;-58
2022/12/17 21:14:18;;;;;;;40.60;19.17;;;-5.30;96.50;;;-1.68;51.82;98621.19;5043398;28;20279;-59
2022/12/17 21:16:46;;;;;;;40.77;20.30;;;-5.30;95.90;;;-1.69;52.16;98613.41;5042405;28;20049;-59
2022/12/17 21:19:18;;;;;;;45.07;20.27;;;-5.40;96.60;;;-1.66;51.90;98615.91;5043401;28;20057;-59
2022/12/17 21:21:46;;;;;;;52.57;22.13;;;-5.40;96.60;;;-1.67;51.77;98607.19;5041562;28;20052;-58
2022/12/17 21:24:14;;;;;;;42.27;19.63;;;-5.30;97.00;;;-1.68;51.61;98613.34;5042278;28;20046;-59
2022/12/17 21:26:45;;;;;;;35.93;18.93;;;-5.30;97.10;;;-1.67;51.93;98607.19;5041990;28;20274;-59
2022/12/17 21:29:15;;;;;;;41.37;20.63;;;-5.30;96.30;;;-1.70;51.62;98617.78;5043235;28;20049;-58
2022/12/17 21:31:49;;;;;;;35.70;19.43;;;-5.40;95.90;;;-1.72;51.98;98619.59;5042505;28;20444;-59
2022/12/17 21:34:22;;;;;;;41.77;19.33;;;-5.50;95.60;;;-1.70;51.15;98627.38;5042066;28;20053;-59
2022/12/17 21:36:50;;;;;;;42.38;18.67;;;-5.40;96.00;;;-1.73;51.69;98635.31;5041795;28;20080;-60
2022/12/17 21:39:19;;;;;;;32.90;17.37;;;-5.50;95.70;;;-1.75;51.46;98624.94;5042035;28;20070;-59
2022/12/17 21:44:35;;;;;;;41.03;19.37;;;-5.50;94.70;;;-1.87;51.68;98622.81;5042994;28;20240;-59
2022/12/17 21:47:03;;;;;;;41.50;20.17;;;-5.50;94.70;;;-1.90;51.44;98625.53;5042766;28;20060;-59
2022/12/17 21:49:31;;;;;;;40.87;18.47;;;-5.50;94.80;;;-1.95;51.46;98630.94;5042633;28;20122;-60
2022/12/17 21:52:00;;;;;;;41.47;18.93;;;-5.60;93.30;;;-1.96;51.47;98642.28;5040417;28;20356;-59
2022/12/17 21:54:28;;;;;;;46.47;19.77;;;-5.70;94.40;;;-1.98;51.24;98649.31;5042799;28;20355;-59
2022/12/17 21:56:56;;;;;;;37.27;17.47;;;-5.80;93.80;;;-2.03;51.19;98648.66;5041199;28;20468;-58
2022/12/17 21:59:23;;;;;;;41.40;20.27;;;-5.90;94.30;;;-2.06;51.16;98639.16;5041350;28;20052;-58
2022/12/17 22:01:52;;;;;;;36.00;17.47;;;-5.90;94.80;;;-2.08;51.14;98637.53;5042184;28;20049;-59
2022/12/17 22:04:21;;;;;;;45.40;19.57;;;-5.90;94.80;;;-2.06;51.18;98633.09;5042317;28;20053;-58
2022/12/17 22:06:49;;;;;;;45.57;20.53;;;-5.90;95.40;;;-2.06;51.16;98635.72;5042325;28;20140;-59
2022/12/17 22:09:36;;;;;;;39.77;20.13;;;-5.90;94.40;;;-2.10;51.09;98640.19;5041300;28;20054;-59
2022/12/17 22:15:10;;;;;;;40.50;20.93;;;-6.00;94.50;;;-2.19;51.14;98656.19;5035105;28;20079;-58
2022/12/17 22:17:41;;;;;;;48.70;20.07;;;-6.00;96.00;;;-2.16;51.11;98644.81;5040712;28;20045;-58
2022/12/17 22:20:10;;;;;;;44.03;18.40;;;-6.00;95.30;;;-2.16;51.15;98647.41;5034231;28;20049;-58
2022/12/17 22:22:37;;;;;;;39.43;17.87;;;-5.90;95.60;;;-2.20;51.28;98642.28;5042704;28;20053;-58
2022/12/17 22:25:06;;;;;;;36.43;18.17;;;-5.90;95.30;;;-2.22;51.70;98649.34;5043115;28;20053;-60
2022/12/17 22:27:39;;;;;;;32.77;16.30;;;-5.80;93.80;;;-2.22;51.33;98654.56;5041963;28;20044;-58
2022/12/17 22:33:01;;;;;;;34.90;18.13;;;-5.80;94.80;;;-2.24;51.36;98651.16;5042502;28;20038;-58
2022/12/17 22:35:41;;;;;;;;;;;-5.90;94.80;;;-2.33;51.69;98641.03;5041745;28;20369;-58
2022/12/17 22:38:29;;;;;;;28.48;13.25;;;-5.80;94.80;;;-2.24;51.79;98653.75;5036664;28;19924;-58
2022/12/17 22:44:23;;;;;;;35.33;17.50;;;-5.80;94.80;;;-2.25;51.33;98648.59;5036430;28;20060;-58
2022/12/17 22:47:11;;;;;;;36.60;16.73;;;-5.80;94.00;;;-2.25;51.48;98646.84;5033839;28;20052;-58
2022/12/17 22:49:40;;;;;;;33.13;17.47;;;-5.80;95.70;;;-2.19;51.62;98633.56;5042528;28;20049;-59
2022/12/17 22:52:10;;;;;;;38.57;17.37;;;-5.80;96.20;;;-2.13;51.57;98639.44;5032708;28;20053;-58
2022/12/17 22:54:38;;;;;;;40.93;18.27;;;-5.70;96.60;;;-2.10;51.89;98637.59;5042648;28;20271;-58
2022/12/17 22:57:07;;;;;;;40.63;20.40;;;-5.60;96.70;;;-2.08;51.76;98638.38;5042460;28;20045;-59
2022/12/17 22:59:54;;;;;;;39.60;19.13;;;-5.60;96.50;;;-2.12;51.79;98635.94;5042307;28;20056;-58
2022/12/17 23:02:22;;;;;;;37.87;17.73;;;-5.50;96.40;;;-2.09;51.75;98647.13;5041300;28;20412;-58
2022/12/17 23:04:50;;;;;;;36.77;18.00;;;-5.60;96.40;;;-2.06;52.10;98635.72;5041866;28;20045;-57
2022/12/17 23:07:18;;;;;;;38.73;18.50;;;-5.60;96.20;;;-2.02;51.82;98630.31;5042258;28;20044;-58
2022/12/17 23:09:46;;;;;;;44.27;19.13;;;-5.60;96.40;;;-1.99;51.66;98637.19;5041122;28;20034;-57
2022/12/17 23:15:01;;;;;;;43.20;17.80;;;-5.50;97.10;;;-1.95;51.93;98645.75;5041975;28;20045;-58
2022/12/17 23:17:29;;;;;;;36.03;16.83;;;-5.40;97.50;;;-1.91;51.85;98652.56;5042110;28;20112;-57
2022/12/17 23:19:57;;;;;;;41.37;19.77;;;-5.40;97.50;;;-1.90;51.56;98660.34;5042347;28;20251;-59
2022/12/17 23:22:25;;;;;;;34.67;17.57;;;-5.40;96.50;;;-1.87;52.04;98660.19;5040659;28;20252;-58
2022/12/17 23:24:52;;;;;;;39.13;19.47;;;-5.40;96.60;;;-1.85;51.92;98660.16;5040791;28;20049;-58
2022/12/17 23:27:20;;;;;;;33.37;20.27;;;-5.40;96.10;;;-1.82;51.86;98662.66;5040801;28;20041;-58
2022/12/17 23:29:48;;;;;;;90.67;36.30;;;-5.40;96.40;;;-1.83;51.73;98661.78;5041879;28;20248;-58
2022/12/17 23:32:16;;;;;;;84.53;35.73;;;-5.50;95.30;;;-1.83;51.66;98659.16;5041391;28;20201;-58
2022/12/17 23:34:44;;;;;;;57.90;25.30;;;-5.60;96.00;;;-1.82;51.68;98663.50;5042004;28;20041;-58
2022/12/17 23:37:11;;;;;;;64.73;27.93;;;-5.50;96.40;;;-1.83;51.33;98661.78;5040720;28;20051;-58
2022/12/17 23:39:39;;;;;;;56.77;25.50;;;-5.50;96.70;;;-1.81;51.71;98649.50;5040971;28;20057;-58
2022/12/17 23:42:07;;;;;;;45.53;20.70;;;-5.50;97.20;;;-1.80;51.41;98655.59;5040345;28;20256;-58
2022/12/17 23:44:35;;;;;;;39.63;21.23;;;-5.50;96.60;;;-1.83;51.83;98643.50;5041641;28;20045;-59
2022/12/17 23:47:03;;;;;;;41.23;20.87;;;-5.40;96.70;;;-1.84;51.53;98638.34;5040738;28;20044;-59
2022/12/17 23:49:30;;;;;;;38.33;20.03;;;-5.50;96.10;;;-1.85;51.79;98641.88;5041833;28;20052;-58
2022/12/17 23:51:58;;;;;;;39.57;19.90;;;-5.40;96.50;;;-1.83;51.84;98640.91;5040072;28;20045;-59
2022/12/17 23:54:26;;;;;;;38.63;19.57;;;-5.40;96.70;;;-1.83;51.50;98642.66;5041912;28;20044;-58
2022/12/17 23:56:54;;;;;;;40.80;18.67;;;-5.50;96.10;;;-1.84;51.74;98657.47;5040590;28;20255;-59
2022/12/17 23:59:22;;;;;;;39.50;20.73;;;-5.50;96.90;;;-1.85;51.43;98652.31;5041717;28;20048;-58
